Time;durP1;ratioP1;P1;durP2;ratioP2;P2;SDS_P1;SDS_P2;PMS_P1;PMS_P2;Temp;Humidity;BMP_temperature;BMP_pressure;BME280_temperature;BME280_humidity;BME280_pressure;Samples;Min_cycle;Max_cycle;Signal;HPM_P1;HPM_P2
2023/10/18 00:00:25;;;;;;;9.52;6.82;;;7.10;99.90;;;7.57;68.00;100374.50;5039887;28;20045;-82
2023/10/18 00:02:53;;;;;;;9.68;6.65;;;7.20;99.90;;;7.57;68.00;100371.88;5022691;28;20049;-82
2023/10/18 00:05:21;;;;;;;11.15;6.88;;;7.20;99.90;;;7.56;68.08;100368.34;5023061;28;20417;-82
2023/10/18 00:07:51;;;;;;;13.10;7.15;;;7.10;99.90;;;7.57;67.92;100371.88;5039720;28;20042;-82
2023/10/18 00:10:21;;;;;;;9.73;6.85;;;7.20;99.90;;;7.58;68.15;100371.66;5008473;28;20476;-82
2023/10/18 00:12:50;;;;;;;10.63;7.20;;;7.20;99.90;;;7.56;68.37;100363.06;5044077;28;20080;-82
2023/10/18 00:15:17;;;;;;;9.20;6.40;;;7.20;99.90;;;7.54;68.04;100357.13;5010544;28;20041;-82
2023/10/18 00:17:45;;;;;;;10.57;6.82;;;7.10;99.90;;;7.55;68.18;100358.75;5044744;28;20077;-82
2023/10/18 00:20:19;;;;;;;10.48;7.03;;;7.10;99.90;;;7.56;67.97;100354.28;5026389;28;20046;-82
2023/10/18 00:22:48;;;;;;;13.80;7.60;;;7.10;99.90;;;7.55;67.95;100353.47;5009994;28;20053;-82
2023/10/18 00:25:17;;;;;;;11.25;7.00;;;7.10;99.90;;;7.51;68.00;100341.59;5044299;28;20045;-82
2023/10/18 00:27:46;;;;;;;11.98;7.32;;;7.10;99.90;;;7.48;67.58;100337.50;5009674;28;20053;-82
2023/10/18 00:30:18;;;;;;;11.45;7.05;;;7.00;99.90;;;7.46;67.61;100344.00;5010583;28;20050;-82
2023/10/18 00:32:46;;;;;;;10.77;6.60;;;7.00;99.90;;;7.43;67.25;100345.22;5010731;28;20060;-82
2023/10/18 00:35:18;;;;;;;11.15;7.13;;;7.00;99.90;;;7.44;67.59;100346.03;5042756;28;20045;-82
2023/10/18 00:37:49;;;;;;;11.80;7.40;;;7.00;99.90;;;7.40;67.67;100339.47;5026498;28;20046;-82
2023/10/18 00:43:13;;;;;;;10.07;6.70;;;7.00;99.90;;;7.34;67.86;100341.06;5022851;28;20191;-82
2023/10/18 00:45:46;;;;;;;10.80;6.70;;;6.90;99.90;;;7.36;67.88;100340.88;5042497;28;20046;-82
2023/10/18 00:48:15;;;;;;;10.30;7.30;;;7.00;99.90;;;7.37;67.88;100340.69;5042768;28;20493;-82
2023/10/18 00:50:45;;;;;;;9.82;6.70;;;7.00;99.90;;;7.37;67.87;100334.56;5009439;28;20546;-82
2023/10/18 00:53:19;;;;;;;10.63;7.05;;;7.00;99.90;;;7.41;68.22;100335.81;5022691;28;20080;-82
2023/10/18 00:55:52;;;;;;;11.30;7.15;;;7.00;99.90;;;7.41;67.43;100331.31;5022450;28;20517;-82
2023/10/18 00:58:23;;;;;;;13.57;7.10;;;7.00;99.90;;;7.40;67.91;100334.19;5040685;28;20463;-82
2023/10/18 01:00:51;;;;;;;11.70;7.20;;;7.00;99.90;;;7.38;67.61;100328.25;5041766;28;20104;-82
2023/10/18 01:03:29;;;;;;;10.88;7.70;;;6.90;99.90;;;7.37;67.89;100326.59;5025200;28;20293;-82
2023/10/18 01:06:04;;;;;;;11.48;7.78;;;6.90;99.90;;;7.34;68.05;100316.38;5041463;28;20046;-82
2023/10/18 01:08:32;;;;;;;12.70;7.10;;;6.90;99.90;;;7.29;67.47;100309.00;5012604;28;20054;-82
2023/10/18 01:11:08;;;;;;;12.82;7.20;;;6.90;99.90;;;7.23;67.40;100313.25;5022410;28;20124;-82
2023/10/18 01:13:39;;;;;;;11.32;7.63;;;6.80;99.90;;;7.23;67.67;100312.44;5024816;28;20073;-82
2023/10/18 01:16:13;;;;;;;12.40;7.30;;;6.80;99.90;;;7.26;67.58;100311.22;5042419;28;20052;-82
2023/10/18 01:18:42;;;;;;;12.30;7.93;;;6.80;99.90;;;7.26;67.67;100312.03;5039654;28;20529;-82
2023/10/18 01:21:16;;;;;;;10.90;7.03;;;6.80;99.90;;;7.22;67.69;100305.47;5041225;28;20581;-82
2023/10/18 01:23:49;;;;;;;10.90;6.95;;;6.80;99.90;;;7.17;67.32;100306.06;5042003;28;20037;-82
2023/10/18 01:26:21;;;;;;;12.32;7.03;;;6.70;99.90;;;7.15;67.54;100304.63;5034315;28;20045;-82
2023/10/18 01:28:51;;;;;;;10.68;7.10;;;6.70;99.90;;;7.11;67.56;100301.53;5033816;28;20042;-82
2023/10/18 01:31:19;;;;;;;11.43;7.47;;;6.70;99.90;;;7.09;67.33;100302.75;5022732;28;20607;-82
2023/10/18 01:33:48;;;;;;;10.10;6.60;;;6.70;99.90;;;7.04;67.36;100299.84;5041387;28;20064;-82
2023/10/18 01:36:18;;;;;;;9.95;6.88;;;6.60;99.90;;;7.02;67.62;100300.03;5041368;28;20095;-82
2023/10/18 01:38:48;;;;;;;11.57;7.03;;;6.60;99.90;;;6.96;67.27;100298.97;5022988;28;20083;-82
2023/10/18 01:41:25;;;;;;;13.02;6.68;;;6.60;99.90;;;6.95;67.22;100293.84;5039978;28;20050;-82
2023/10/18 01:43:52;;;;;;;8.38;6.35;;;6.60;99.90;;;6.96;67.27;100291.00;5008372;28;20050;-82
2023/10/18 01:46:23;;;;;;;12.13;6.80;;;6.60;99.90;;;6.93;67.28;100294.06;5004468;28;20046;-82
2023/10/18 01:48:51;;;;;;;10.80;6.88;;;6.50;99.90;;;6.91;67.26;100285.47;5038951;28;20129;-82
2023/10/18 01:51:19;;;;;;;9.73;6.72;;;6.50;99.90;;;6.89;67.10;100273.44;5039879;28;20049;-82
2023/10/18 01:53:50;;;;;;;11.38;6.70;;;6.50;99.90;;;6.88;67.24;100277.06;5040882;28;20517;-82
2023/10/18 01:56:21;;;;;;;9.48;6.80;;;6.50;99.90;;;6.83;66.98;100269.72;5022883;28;20034;-82
2023/10/18 01:58:48;;;;;;;13.77;7.25;;;6.50;99.90;;;6.81;67.19;100274.38;5022690;28;20045;-82
2023/10/18 02:01:17;;;;;;;13.75;7.10;;;6.40;99.90;;;6.78;67.32;100265.97;5021237;28;20440;-82
2023/10/18 02:03:46;;;;;;;11.05;6.93;;;6.40;99.90;;;6.77;67.09;100270.47;4954798;28;20086;-82
2023/10/18 02:06:15;;;;;;;10.95;7.18;;;6.40;99.90;;;6.76;66.99;100265.34;5016174;28;20034;-82
2023/10/18 02:08:42;;;;;;;9.57;6.55;;;6.30;99.90;;;6.71;67.24;100269.41;4987117;28;20520;-82
2023/10/18 02:11:11;;;;;;;10.25;7.20;;;6.30;99.90;;;6.70;67.09;100269.59;5018606;28;20049;-82
2023/10/18 02:13:41;;;;;;;11.00;6.40;;;6.30;99.90;;;6.67;67.23;100269.97;5035680;28;20034;-82
2023/10/18 02:16:15;;;;;;;9.48;6.82;;;6.30;99.90;;;6.67;66.94;100262.84;5019611;28;20509;-82
2023/10/18 02:18:46;;;;;;;9.05;6.57;;;6.30;99.90;;;6.64;66.91;100265.88;5021293;28;20073;-82
2023/10/18 02:21:14;;;;;;;9.25;6.32;;;6.20;99.90;;;6.62;67.05;100262.59;5002976;28;20060;-82
2023/10/18 02:23:42;;;;;;;11.23;6.13;;;6.20;99.90;;;6.62;66.59;100259.13;5020244;28;20038;-82
2023/10/18 02:26:27;;;;;;;10.88;6.43;;;6.20;99.90;;;6.57;66.95;100261.53;5021464;28;20041;-82
2023/10/18 02:28:56;;;;;;;8.48;6.25;;;6.10;99.90;;;6.57;67.34;100253.56;5002849;28;20429;-82
2023/10/18 02:31:23;;;;;;;10.32;6.60;;;6.40;99.90;;;6.57;66.92;100261.53;5021082;28;20049;-82
2023/10/18 02:33:53;;;;;;;10.35;6.45;;;6.20;99.90;;;6.55;66.65;100258.25;5022729;28;20080;-82
2023/10/18 02:36:24;;;;;;;14.90;7.35;;;6.20;99.90;;;6.57;66.81;100253.56;5022922;28;20042;-82
2023/10/18 02:38:52;;;;;;;9.18;6.20;;;6.20;99.90;;;6.57;66.81;100242.97;5022655;28;20056;-82
2023/10/18 02:41:21;;;;;;;10.95;6.63;;;6.10;99.90;;;6.55;66.92;100245.00;5021777;28;20047;-82
2023/10/18 02:43:50;;;;;;;10.23;7.18;;;6.10;99.90;;;6.52;66.93;100240.06;5022250;28;20044;-82
2023/10/18 02:46:20;;;;;;;9.35;6.68;;;6.10;99.90;;;6.51;67.31;100230.50;5006223;28;20108;-82
2023/10/18 02:48:50;;;;;;;10.45;7.10;;;6.10;99.90;;;6.51;66.67;100233.97;5039966;28;20168;-82
2023/10/18 02:51:22;;;;;;;10.15;6.43;;;6.10;99.90;;;6.52;66.92;100232.94;5038845;28;20053;-82
2023/10/18 02:53:51;;;;;;;10.52;6.95;;;6.10;99.90;;;6.53;66.77;100226.63;5022705;28;20509;-82
2023/10/18 02:56:20;;;;;;;9.85;6.68;;;6.10;99.90;;;6.55;67.16;100221.97;5000093;28;20042;-82
2023/10/18 02:58:48;;;;;;;11.02;7.65;;;6.10;99.90;;;6.58;67.96;100218.94;5020928;28;20445;-82
2023/10/18 03:01:18;;;;;;;9.80;6.95;;;6.10;99.90;;;6.61;67.92;100213.25;5020767;28;20133;-82
2023/10/18 03:03:49;;;;;;;10.30;7.40;;;6.20;99.90;;;6.64;67.79;100212.06;4979997;28;20057;-82
2023/10/18 03:06:17;;;;;;;13.40;7.28;;;6.20;99.90;;;6.64;67.52;100207.59;5040447;28;20052;-82
2023/10/18 03:08:46;;;;;;;10.55;7.57;;;6.20;99.90;;;6.67;67.79;100201.88;5039739;28;20445;-82
2023/10/18 03:11:17;;;;;;;10.38;7.70;;;6.20;99.90;;;6.71;68.18;100192.53;5023293;28;20053;-82
2023/10/18 03:13:44;;;;;;;12.70;8.15;;;6.20;99.90;;;6.75;67.99;100192.16;5039235;28;20073;-82
2023/10/18 03:16:17;;;;;;;11.60;7.57;;;6.30;99.90;;;6.77;68.08;100187.47;5022256;28;20038;-82
2023/10/18 03:18:47;;;;;;;11.88;8.02;;;6.30;99.90;;;6.82;67.94;100182.41;5022149;28;20535;-82
2023/10/18 03:21:21;;;;;;;13.00;7.93;;;6.30;99.90;;;6.87;67.89;100180.00;5022558;28;20513;-82
2023/10/18 03:23:51;;;;;;;12.18;8.00;;;6.40;99.90;;;6.88;67.86;100174.53;5039216;28;20041;-82
2023/10/18 03:26:23;;;;;;;13.27;8.02;;;6.40;99.90;;;6.88;68.05;100176.34;5020044;28;20065;-82
2023/10/18 03:28:52;;;;;;;13.57;8.82;;;6.40;99.90;;;6.84;67.87;100180.41;5003525;28;20054;-82
2023/10/18 03:31:27;;;;;;;11.50;7.93;;;6.30;99.90;;;6.85;68.12;100171.44;5017068;28;20038;-82
2023/10/18 03:34:02;;;;;;;12.30;8.00;;;6.40;99.90;;;6.81;67.62;100175.50;5002873;28;20092;-82
2023/10/18 03:36:33;;;;;;;14.95;8.68;;;6.30;99.90;;;6.80;68.06;100168.56;4987241;28;20042;-82
2023/10/18 03:39:10;;;;;;;12.55;8.65;;;6.30;99.90;;;6.81;68.22;100171.00;5021336;28;20462;-82
2023/10/18 03:41:40;;;;;;;13.38;8.52;;;6.30;99.90;;;6.83;68.28;100160.19;5006716;28;20468;-82
2023/10/18 03:44:08;;;;;;;12.57;7.97;;;6.40;99.90;;;6.82;67.81;100163.88;5023181;28;20060;-82
2023/10/18 03:46:46;;;;;;;12.00;8.32;;;6.30;99.90;;;6.85;68.28;100159.00;5037155;28;20053;-82
2023/10/18 03:49:22;;;;;;;11.73;8.23;;;6.40;99.90;;;6.85;68.50;100151.06;5005192;28;20053;-82
2023/10/18 03:51:54;;;;;;;12.65;8.38;;;6.40;99.90;;;6.83;68.21;100150.44;5013339;28;20046;-82
2023/10/18 03:54:26;;;;;;;14.23;8.23;;;6.40;99.90;;;6.80;68.37;100157.97;5023482;28;20562;-82
2023/10/18 03:56:55;;;;;;;10.40;8.02;;;6.40;99.90;;;6.79;68.50;100145.72;5024121;28;20042;-82
2023/10/18 03:59:24;;;;;;;11.38;7.95;;;6.40;99.90;;;6.79;68.54;100143.06;5022884;28;20038;-82
2023/10/18 04:02:15;;;;;;;13.05;8.27;;;6.40;99.90;;;6.81;68.54;100133.91;5040793;28;20128;-82
2023/10/18 04:04:47;;;;;;;11.68;7.97;;;6.40;99.90;;;6.81;68.50;100127.78;5034376;28;20084;-82
2023/10/18 04:07:20;;;;;;;11.18;8.40;;;6.40;99.90;;;6.79;68.45;100121.88;5036318;28;20048;-82
2023/10/18 04:09:53;;;;;;;13.45;7.90;;;6.40;99.90;;;6.75;68.24;100131.22;5040701;28;20049;-82
2023/10/18 04:12:22;;;;;;;12.38;8.20;;;6.30;99.90;;;6.74;68.58;100129.59;5023315;28;20041;-82
2023/10/18 04:14:56;;;;;;;12.05;7.53;;;6.30;99.90;;;6.76;68.43;100124.91;5036016;28;20420;-82
2023/10/18 04:17:37;;;;;;;12.20;7.93;;;6.30;99.90;;;6.80;68.53;100126.16;5003862;28;20145;-82
2023/10/18 04:20:15;;;;;;;14.43;8.93;;;6.30;99.90;;;6.79;68.11;100120.03;5020397;28;20026;-82
2023/10/18 04:22:43;;;;;;;13.10;7.95;;;6.30;99.90;;;6.75;68.51;100118.78;5019704;28;20049;-82
2023/10/18 04:25:16;;;;;;;13.57;8.15;;;6.30;99.90;;;6.74;68.64;100116.34;5018662;28;20050;-82
2023/10/18 04:27:44;;;;;;;13.48;8.32;;;6.30;99.90;;;6.75;68.65;100112.66;5018960;28;20088;-82
2023/10/18 04:30:16;;;;;;;13.48;8.13;;;6.30;99.90;;;6.73;68.65;100104.88;5022953;28;20109;-82
2023/10/18 04:32:45;;;;;;;12.27;8.25;;;6.30;99.90;;;6.74;68.60;100105.72;5031710;28;20053;-82
2023/10/18 04:35:25;;;;;;;13.88;8.00;;;6.30;99.90;;;6.71;68.32;100099.78;5022785;28;20140;-82
2023/10/18 04:37:53;;;;;;;11.60;7.63;;;6.30;99.90;;;6.70;68.60;100094.69;5040647;28;20061;-82
2023/10/18 04:40:25;;;;;;;12.68;8.07;;;6.30;99.90;;;6.73;68.58;100094.28;5041015;28;20041;-82
2023/10/18 04:42:55;;;;;;;12.60;7.70;;;6.30;99.90;;;6.73;68.82;100094.28;5039347;28;20099;-82
2023/10/18 04:45:24;;;;;;;13.43;8.18;;;6.40;99.90;;;6.72;68.42;100088.16;5023150;28;20049;-82
2023/10/18 04:47:58;;;;;;;13.48;7.82;;;6.30;99.90;;;6.75;68.60;100086.16;5041778;28;20041;-82
2023/10/18 04:50:32;;;;;;;11.50;7.90;;;6.30;99.90;;;6.70;68.45;100074.31;5008024;28;20049;-82
2023/10/18 04:53:00;;;;;;;13.00;7.75;;;6.30;99.90;;;6.68;68.06;100078.16;5023442;28;20053;-82
2023/10/18 04:55:27;;;;;;;11.98;7.47;;;6.20;99.90;;;6.64;68.49;100074.28;5008259;28;20052;-82
2023/10/18 04:57:55;;;;;;;12.30;7.50;;;6.20;99.90;;;6.59;68.21;100077.53;5045020;28;20064;-82
2023/10/18 05:00:35;;;;;;;11.40;7.55;;;6.20;99.90;;;6.56;68.34;100066.50;5025503;28;20079;-82
2023/10/18 05:03:06;;;;;;;11.13;7.63;;;6.10;99.90;;;6.53;68.42;100067.69;5045285;28;20050;-83
2023/10/18 05:05:44;;;;;;;11.95;7.20;;;6.10;99.90;;;6.52;67.92;100068.69;5007913;28;20513;-83
2023/10/18 05:08:15;;;;;;;10.68;7.65;;;6.10;99.90;;;6.46;68.08;100061.53;4991835;28;20049;-83
2023/10/18 05:10:45;;;;;;;12.07;7.30;;;6.00;99.90;;;6.42;68.25;100060.28;5024325;28;20076;-84
2023/10/18 05:13:22;;;;;;;11.52;7.45;;;6.00;99.90;;;6.41;68.35;100053.34;5016219;28;20105;-82
2023/10/18 05:15:53;;;;;;;11.95;8.02;;;5.90;99.90;;;6.43;68.80;100056.63;5041010;28;20509;-83
2023/10/18 05:18:23;;;;;;;11.75;7.18;;;6.00;99.90;;;6.43;68.63;100062.72;5036982;28;20050;-84
2023/10/18 05:20:57;;;;;;;11.23;6.97;;;6.00;99.90;;;6.40;68.33;100057.03;5047601;28;20045;-85
2023/10/18 05:23:26;;;;;;;12.15;6.93;;;6.00;99.90;;;6.39;68.17;100060.66;5019670;28;20140;-86
2023/10/18 05:26:08;;;;;;;12.10;7.20;;;6.00;99.90;;;6.38;67.99;100059.03;5037463;28;20045;-86
2023/10/18 05:28:47;;;;;;;11.20;7.30;;;6.00;99.90;;;6.32;68.29;100057.16;5042982;28;20045;-84
2023/10/18 05:34:18;;;;;;;10.88;6.68;;;5.90;99.90;;;6.23;68.06;100040.59;4975863;28;20126;-84
2023/10/18 05:36:58;;;;;;;10.55;7.15;;;5.80;99.90;;;6.21;68.46;100045.28;5039665;28;20045;-86
2023/10/18 05:39:27;;;;;;;12.98;7.78;;;5.80;99.90;;;6.21;68.15;100032.03;5038882;28;20139;-84
2023/10/18 05:44:36;;;;;;;12.13;7.80;;;5.80;99.90;;;6.25;68.61;100038.59;5044682;28;20544;-84
2023/10/18 05:47:06;;;;;;;12.18;7.22;;;5.90;99.90;;;6.23;68.64;100029.19;5040260;28;20085;-84
2023/10/18 05:49:41;;;;;;;10.02;6.72;;;5.90;99.90;;;6.24;68.87;100028.19;5005503;28;20164;-84
2023/10/18 05:52:29;;;;;;;12.32;7.57;;;6.00;99.90;;;6.26;69.00;100031.47;5006450;28;20065;-86
2023/10/18 05:54:57;;;;;;;13.88;7.70;;;5.90;99.90;;;6.30;68.84;100020.28;5042416;28;20125;-85
2023/10/18 05:57:26;;;;;;;12.65;7.32;;;5.90;99.90;;;6.33;68.87;100019.06;5012387;28;20178;-84
2023/10/18 05:59:53;;;;;;;11.20;6.78;;;5.90;99.90;;;6.39;69.13;100018.28;5050377;28;20052;-84
2023/10/18 06:05:09;;;;;;;12.98;7.07;;;6.00;99.90;;;6.41;68.92;100017.09;5047424;28;20150;-83
2023/10/18 06:07:38;;;;;;;10.75;6.85;;;6.00;99.90;;;6.42;68.75;100018.72;5028734;28;20041;-83
2023/10/18 06:10:13;;;;;;;9.75;5.95;;;6.00;99.90;;;6.43;68.79;100008.94;5028821;28;20046;-83
2023/10/18 06:12:46;;;;;;;11.00;6.78;;;6.00;99.90;;;6.44;68.76;100013.22;5027765;28;20425;-83
2023/10/18 06:15:30;;;;;;;12.02;7.05;;;6.10;99.90;;;6.47;68.81;100010.19;5046574;28;20042;-83
2023/10/18 06:17:57;;;;;;;12.43;7.07;;;6.10;99.90;;;6.49;68.66;100009.97;5045815;28;20054;-83
2023/10/18 06:20:27;;;;;;;10.77;7.03;;;6.10;99.90;;;6.51;68.81;100002.69;5046617;28;20061;-83
2023/10/18 06:25:44;;;;;;;10.02;6.85;;;6.10;99.90;;;6.49;69.15;100000.22;5023856;28;20513;-83
2023/10/18 06:28:20;;;;;;;11.20;6.82;;;6.10;99.90;;;6.48;69.02;100001.22;5008889;28;20457;-83
2023/10/18 06:30:51;;;;;;;11.15;6.82;;;6.10;99.90;;;6.44;69.28;99998.16;5027769;28;20042;-83
2023/10/18 06:33:19;;;;;;;10.25;6.88;;;6.00;99.90;;;6.41;69.51;99997.75;5011377;28;20072;-83
2023/10/18 06:35:52;;;;;;;9.40;6.22;;;6.00;99.90;;;6.41;69.51;99992.44;5028121;28;20676;-83
2023/10/18 06:38:23;;;;;;;9.05;6.32;;;6.00;99.90;;;6.41;69.64;99995.91;5028047;28;20045;-83
2023/10/18 06:40:53;;;;;;;11.10;6.80;;;6.00;99.90;;;6.42;69.91;99997.53;5010650;28;20049;-83
2023/10/18 06:43:20;;;;;;;12.85;6.90;;;6.10;99.90;;;6.42;70.03;99994.06;5009790;28;20113;-83
2023/10/18 06:45:50;;;;;;;11.25;7.18;;;6.10;99.90;;;6.43;69.88;99999.16;5025750;28;20100;-83
2023/10/18 06:48:19;;;;;;;16.50;8.02;;;6.10;99.90;;;6.46;70.15;99995.31;5010214;28;20425;-83
2023/10/18 06:50:48;;;;;;;12.15;7.50;;;6.20;99.90;;;6.52;70.07;99986.56;5009865;28;20436;-83
2023/10/18 06:53:16;;;;;;;22.23;8.10;;;6.20;99.90;;;6.56;69.65;99984.34;5026911;28;20073;-83
2023/10/18 06:55:54;;;;;;;12.88;7.30;;;6.30;99.90;;;6.57;70.13;99986.81;5002212;28;20075;-83
2023/10/18 06:58:41;;;;;;;12.63;7.30;;;6.30;99.90;;;6.65;69.93;99986.66;5010655;28;20050;-83
2023/10/18 07:01:14;;;;;;;12.13;7.75;;;6.40;99.90;;;6.69;69.98;99982.59;5030588;28;20526;-83
2023/10/18 07:03:42;;;;;;;15.45;6.97;;;6.50;99.90;;;6.75;70.26;99985.47;5027729;28;20519;-83
2023/10/18 07:06:16;;;;;;;15.32;8.25;;;6.40;99.90;;;6.78;70.25;99977.09;5045397;28;20053;-83
2023/10/18 07:08:45;;;;;;;15.45;7.35;;;6.40;99.90;;;6.81;70.52;99974.06;5012230;28;20052;-83
2023/10/18 07:11:17;;;;;;;12.70;7.50;;;6.50;99.90;;;6.83;70.19;99972.00;5043722;28;20056;-82
2023/10/18 07:13:50;;;;;;;13.77;7.78;;;6.50;99.90;;;6.82;70.40;99959.78;5044587;28;20056;-82
2023/10/18 07:16:25;;;;;;;12.57;7.25;;;6.60;99.90;;;6.85;70.27;99964.69;5045895;28;20524;-82
2023/10/18 07:19:06;;;;;;;14.48;8.30;;;6.60;99.90;;;6.90;70.44;99962.28;5044403;28;20072;-82
2023/10/18 07:21:34;;;;;;;13.80;7.70;;;6.60;99.90;;;6.92;70.64;99963.69;4983595;28;20051;-83
2023/10/18 07:24:09;;;;;;;17.00;8.40;;;6.60;99.90;;;6.94;70.69;99956.38;5027426;28;20041;-83
2023/10/18 07:26:38;;;;;;;15.68;8.23;;;6.60;99.90;;;6.99;70.81;99945.16;5026769;28;20066;-83
2023/10/18 07:29:08;;;;;;;15.40;8.65;;;6.70;99.90;;;7.04;70.99;99945.38;5042735;28;20060;-82
2023/10/18 07:31:38;;;;;;;16.30;8.60;;;6.70;99.90;;;7.09;70.75;99942.13;5045139;28;20060;-82
2023/10/18 07:34:07;;;;;;;15.80;8.07;;;6.80;99.90;;;7.10;70.90;99933.97;5028645;28;20042;-83
2023/10/18 07:36:37;;;;;;;16.08;8.93;;;6.80;99.90;;;7.15;70.93;99936.00;5025167;28;20073;-83
2023/10/18 07:39:06;;;;;;;16.80;8.52;;;6.90;99.90;;;7.20;70.94;99929.06;5021860;28;20067;-82
2023/10/18 07:41:35;;;;;;;20.58;9.40;;;6.90;99.90;;;7.23;71.27;99911.97;5039527;28;20042;-83
2023/10/18 07:44:06;;;;;;;13.13;8.38;;;7.00;99.90;;;7.30;71.27;99911.94;5019743;28;20412;-82
2023/10/18 07:46:34;;;;;;;16.13;8.55;;;7.00;99.90;;;7.32;70.78;99901.94;5002033;28;20515;-82
2023/10/18 07:49:11;;;;;;;12.15;8.15;;;7.00;99.90;;;7.36;71.29;99900.50;5002140;28;20116;-82
2023/10/18 07:51:43;;;;;;;14.90;8.20;;;7.10;99.90;;;7.37;71.33;99897.69;5020675;28;20065;-82
2023/10/18 07:54:14;;;;;;;13.50;8.18;;;7.10;99.90;;;7.43;71.29;99898.69;5002843;28;20077;-82
2023/10/18 07:56:50;;;;;;;15.30;8.45;;;7.20;99.90;;;7.48;71.79;99890.94;4986325;28;20505;-83
2023/10/18 07:59:29;;;;;;;17.25;8.45;;;7.20;99.90;;;7.51;71.63;99889.69;5019896;28;20050;-82
2023/10/18 08:02:12;;;;;;;13.43;7.85;;;7.30;99.90;;;7.54;71.67;99884.81;5009611;28;20076;-82
2023/10/18 08:04:44;;;;;;;27.42;8.88;;;7.30;99.90;;;7.57;71.33;99884.41;5019061;28;20050;-83
2023/10/18 08:07:15;;;;;;;17.83;8.43;;;7.40;99.90;;;7.60;71.76;99883.16;5019190;28;20053;-82
2023/10/18 08:09:43;;;;;;;18.52;8.65;;;7.40;99.90;;;7.63;71.61;99882.75;5019160;28;20041;-83
2023/10/18 08:12:20;;;;;;;14.13;8.15;;;7.40;99.90;;;7.67;71.25;99889.28;4986651;28;20041;-83
2023/10/18 08:14:50;;;;;;;17.80;8.90;;;7.50;99.90;;;7.71;71.72;99883.38;5002232;28;20108;-84
2023/10/18 08:22:44;;;;;;;14.60;9.15;;;7.60;99.90;;;7.81;72.16;99868.81;5001474;28;20101;-84
2023/10/18 08:25:24;;;;;;;18.08;10.07;;;7.70;99.90;;;7.82;72.07;99865.97;4987412;28;20046;-84
2023/10/18 08:27:52;;;;;;;15.70;9.10;;;7.70;99.90;;;7.87;72.31;99862.69;5002972;28;20069;-84
2023/10/18 08:30:38;;;;;;;22.48;9.80;;;7.70;99.90;;;7.89;71.99;99863.28;5000061;28;20137;-84
2023/10/18 08:33:06;;;;;;;15.80;8.90;;;7.80;99.90;;;7.93;72.01;99860.03;4988878;28;20050;-84
2023/10/18 08:35:33;;;;;;;18.60;9.57;;;7.80;99.90;;;7.99;72.12;99848.56;5034051;28;20064;-83
2023/10/18 08:38:02;;;;;;;17.95;9.32;;;7.90;99.90;;;8.05;72.38;99843.44;5022870;28;20072;-83
2023/10/18 08:40:36;;;;;;;19.45;9.60;;;7.90;99.90;;;8.09;72.10;99844.66;5021929;28;20148;-83
2023/10/18 08:43:14;;;;;;;18.60;9.63;;;8.00;99.90;;;8.12;71.69;99842.38;5021631;28;20103;-83
2023/10/18 08:45:46;;;;;;;20.90;9.32;;;8.00;99.90;;;8.16;71.69;99843.59;5021719;28;20068;-83
2023/10/18 08:48:26;;;;;;;18.40;9.60;;;8.10;99.90;;;8.23;71.87;99840.91;5021260;28;20531;-83
2023/10/18 08:50:54;;;;;;;17.67;9.68;;;8.20;99.90;;;8.29;71.88;99844.56;5015817;28;20137;-82
2023/10/18 08:53:23;;;;;;;16.48;9.70;;;8.20;99.90;;;8.36;71.75;99834.72;4984928;28;20082;-83
2023/10/18 08:55:52;;;;;;;23.02;10.45;;;8.30;99.90;;;8.40;71.49;99831.47;5000727;28;20072;-83
2023/10/18 08:58:22;;;;;;;18.65;10.00;;;8.40;99.90;;;8.47;71.52;99832.22;4984979;28;20050;-83
2023/10/18 09:01:09;;;;;;;17.13;9.15;;;8.40;99.90;;;8.49;71.30;99824.88;5001927;28;20056;-83
2023/10/18 09:03:36;;;;;;;21.30;10.27;;;8.50;99.90;;;8.51;70.96;99822.00;5001158;28;20140;-83
2023/10/18 09:06:05;;;;;;;22.33;9.77;;;8.60;99.90;;;8.57;71.24;99815.81;5001876;28;20049;-83
2023/10/18 09:08:42;;;;;;;19.20;10.25;;;8.60;99.90;;;8.62;71.27;99831.13;5015453;28;20464;-83
2023/10/18 09:11:20;;;;;;;18.75;9.48;;;8.60;99.90;;;8.64;70.80;99821.13;5002581;28;20501;-83
2023/10/18 09:14:07;;;;;;;18.35;9.20;;;8.70;99.90;;;8.68;70.54;99820.44;5021278;28;20062;-83
2023/10/18 09:16:40;;;;;;;15.98;8.95;;;8.70;99.90;;;8.72;70.64;99818.19;5024039;28;20527;-83
2023/10/18 09:19:08;;;;;;;17.50;9.15;;;8.80;99.90;;;8.75;71.04;99812.44;5005136;28;20076;-83
2023/10/18 09:21:42;;;;;;;18.23;9.23;;;8.80;99.90;;;8.80;70.95;99804.63;5022206;28;20489;-83
2023/10/18 09:24:11;;;;;;;16.08;9.23;;;8.90;99.90;;;8.86;70.74;99797.63;5018416;28;20080;-83
2023/10/18 09:26:41;;;;;;;16.00;9.05;;;8.90;99.90;;;8.85;70.77;99786.19;5029642;28;20065;-83
2023/10/18 09:29:10;;;;;;;15.95;8.70;;;9.00;99.90;;;8.88;70.78;99795.56;5020333;28;20064;-83
2023/10/18 09:31:52;;;;;;;17.15;8.95;;;9.00;99.90;;;8.91;70.97;99795.94;5002696;28;20057;-83
2023/10/18 09:34:20;;;;;;;16.67;8.23;;;9.00;99.90;;;8.91;70.27;99793.28;5019270;28;20509;-83
2023/10/18 09:36:56;;;;;;;16.52;8.93;;;9.00;99.90;;;8.94;69.92;99784.88;5001660;28;20494;-83
2023/10/18 09:39:37;;;;;;;13.77;8.30;;;9.00;99.90;;;8.97;69.85;99786.28;5002331;28;20045;-83
2023/10/18 09:42:05;;;;;;;22.17;8.30;;;9.10;99.90;;;9.03;70.02;99782.78;5022380;28;20508;-83
2023/10/18 09:44:33;;;;;;;14.30;8.05;;;9.20;99.90;;;9.06;70.13;99777.00;5004567;28;20049;-83
2023/10/18 09:47:04;;;;;;;12.00;7.78;;;9.20;99.90;;;9.09;69.84;99775.78;5035813;28;20043;-83
2023/10/18 09:49:34;;;;;;;22.70;9.30;;;9.20;99.90;;;9.11;69.60;99774.50;5000994;28;20465;-82
2023/10/18 09:52:07;;;;;;;22.98;9.48;;;9.30;99.90;;;9.15;69.36;99775.69;5005177;28;20047;-83
2023/10/18 09:54:37;;;;;;;20.55;8.07;;;9.30;99.90;;;9.19;70.00;99768.91;5033876;28;20050;-83
2023/10/18 09:57:07;;;;;;;16.40;8.20;;;9.30;99.90;;;9.23;69.64;99771.94;5018563;28;20038;-83
2023/10/18 09:59:46;;;;;;;13.93;7.30;;;9.40;99.90;;;9.28;69.33;99772.09;5004141;28;20046;-83
2023/10/18 10:02:17;;;;;;;16.15;8.35;;;9.40;99.90;;;9.29;69.08;99766.56;5022796;28;20049;-83
2023/10/18 10:04:52;;;;;;;13.38;7.45;;;9.50;99.90;;;9.34;69.08;99757.91;5006043;28;20623;-83
2023/10/18 10:07:38;;;;;;;14.45;7.90;;;9.50;99.90;;;9.41;68.99;99761.31;5024005;28;20064;-83
2023/10/18 10:10:09;;;;;;;12.20;8.30;;;9.60;99.90;;;9.47;68.56;99757.78;5005982;28;20493;-83
2023/10/18 10:12:41;;;;;;;18.02;8.35;;;9.70;99.90;;;9.53;68.63;99748.91;5038246;28;20049;-83
2023/10/18 10:15:14;;;;;;;14.40;8.40;;;9.70;99.90;;;9.63;70.03;99752.91;5024009;28;20080;-83
2023/10/18 10:17:55;;;;;;;14.07;7.88;;;9.80;99.90;;;9.70;70.37;99742.97;5034254;28;20046;-83
2023/10/18 10:20:31;;;;;;;14.23;7.82;;;9.90;99.90;;;9.76;69.13;99740.25;5034461;28;20046;-83
2023/10/18 10:23:03;;;;;;;13.18;7.40;;;10.00;99.90;;;9.83;68.46;99750.81;5023703;28;20547;-83
2023/10/18 10:25:32;;;;;;;12.70;7.57;;;10.00;99.90;;;9.92;69.12;99746.00;5023623;28;20148;-83
2023/10/18 10:28:13;;;;;;;15.25;7.55;;;10.20;99.90;;;9.99;68.34;99744.84;4989119;28;20050;-83
2023/10/18 10:30:43;;;;;;;11.10;7.00;;;10.20;99.90;;;10.04;67.79;99734.34;5004856;28;20041;-83
2023/10/18 10:33:15;;;;;;;12.27;6.85;;;10.30;99.90;;;10.10;67.21;99721.16;5020480;28;20080;-83
2023/10/18 10:35:47;;;;;;;11.48;6.95;;;10.40;99.90;;;10.17;67.53;99706.69;5002407;28;20049;-83
2023/10/18 10:38:20;;;;;;;12.68;6.60;;;10.50;99.90;;;10.24;67.20;99707.44;5019277;28;20096;-83
2023/10/18 10:40:49;;;;;;;10.38;6.38;;;10.50;99.90;;;10.34;67.31;99708.72;5019199;28;20042;-83
2023/10/18 10:43:19;;;;;;;10.70;6.30;;;10.70;99.90;;;10.40;67.01;99705.19;5033394;28;20050;-83
2023/10/18 10:48:49;;;;;;;9.98;5.88;;;10.90;99.90;;;10.61;66.86;99691.28;5002793;28;20049;-83
2023/10/18 10:51:20;;;;;;;14.15;6.00;;;11.00;99.90;;;10.69;66.45;99679.50;5019466;28;20128;-83
2023/10/18 10:53:54;;;;;;;8.23;5.15;;;11.00;99.90;;;10.74;65.42;99669.75;5022784;28;20571;-83
2023/10/18 10:56:48;;;;;;;9.20;4.65;;;11.10;99.90;;;10.87;64.67;99659.88;5006345;28;20042;-83
2023/10/18 10:59:21;;;;;;;13.63;4.50;;;11.20;99.90;;;11.01;63.00;99663.91;5023406;28;20044;-83
2023/10/18 11:01:57;;;;;;;10.13;4.50;;;11.40;99.90;;;11.06;62.43;99650.69;5024076;28;20057;-83
2023/10/18 11:04:58;;;;;;;8.48;4.53;;;11.40;99.90;;;11.14;62.51;99642.31;5037878;28;20050;-83